sensor_id;sensor_type;location;lat;lon;timestamp;temperature;humidity
14182;DHT22;7171;50.936;6.764;2023-09-18T00:00:27;23.30;99.90
14182;DHT22;7171;50.936;6.764;2023-09-18T00:02:55;23.30;99.90
14182;DHT22;7171;50.936;6.764;2023-09-18T00:05:21;23.30;99.90
14182;DHT22;7171;50.936;6.764;2023-09-18T00:07:48;23.30;99.90
14182;DHT22;7171;50.936;6.764;2023-09-18T00:10:15;23.20;99.90
14182;DHT22;7171;50.936;6.764;2023-09-18T00:12:41;23.20;99.90
14182;DHT22;7171;50.936;6.764;2023-09-18T00:15:09;23.20;99.90
14182;DHT22;7171;50.936;6.764;2023-09-18T00:17:36;23.20;99.90
14182;DHT22;7171;50.936;6.764;2023-09-18T00:20:05;23.20;99.90
14182;DHT22;7171;50.936;6.764;2023-09-18T00:22:32;23.20;99.90
14182;DHT22;7171;50.936;6.764;2023-09-18T00:24:59;23.10;99.90
14182;DHT22;7171;50.936;6.764;2023-09-18T00:27:26;23.00;99.90
14182;DHT22;7171;50.936;6.764;2023-09-18T00:29:53;23.00;99.90
14182;DHT22;7171;50.936;6.764;2023-09-18T00:32:20;22.90;99.90
14182;DHT22;7171;50.936;6.764;2023-09-18T00:34:47;22.90;99.90
14182;DHT22;7171;50.936;6.764;2023-09-18T00:37:15;22.80;99.90
14182;DHT22;7171;50.936;6.764;2023-09-18T00:39:42;22.80;99.90
14182;DHT22;7171;50.936;6.764;2023-09-18T00:42:09;22.70;99.90
14182;DHT22;7171;50.936;6.764;2023-09-18T00:44:39;22.70;99.90
14182;DHT22;7171;50.936;6.764;2023-09-18T00:47:06;22.60;99.90
14182;DHT22;7171;50.936;6.764;2023-09-18T00:49:34;22.60;99.90
14182;DHT22;7171;50.936;6.764;2023-09-18T00:52:01;22.60;99.90
14182;DHT22;7171;50.936;6.764;2023-09-18T00:54:31;22.50;99.90
14182;DHT22;7171;50.936;6.764;2023-09-18T00:56:58;22.50;99.90
14182;DHT22;7171;50.936;6.764;2023-09-18T00:59:25;22.40;99.90
14182;DHT22;7171;50.936;6.764;2023-09-18T01:01:52;22.50;99.90
14182;DHT22;7171;50.936;6.764;2023-09-18T01:04:19;22.40;99.90
14182;DHT22;7171;50.936;6.764;2023-09-18T01:06:47;22.40;99.90
14182;DHT22;7171;50.936;6.764;2023-09-18T01:09:16;22.30;99.90
14182;DHT22;7171;50.936;6.764;2023-09-18T01:11:50;22.30;99.90
14182;DHT22;7171;50.936;6.764;2023-09-18T01:14:20;22.30;99.90
14182;DHT22;7171;50.936;6.764;2023-09-18T01:16:53;22.20;99.90
14182;DHT22;7171;50.936;6.764;2023-09-18T01:19:36;22.20;99.90
14182;DHT22;7171;50.936;6.764;2023-09-18T01:22:03;22.20;99.90
14182;DHT22;7171;50.936;6.764;2023-09-18T01:24:32;22.20;99.90
14182;DHT22;7171;50.936;6.764;2023-09-18T01:26:59;22.20;99.90
14182;DHT22;7171;50.936;6.764;2023-09-18T01:29:26;22.10;99.90
14182;DHT22;7171;50.936;6.764;2023-09-18T01:31:53;22.10;99.90
14182;DHT22;7171;50.936;6.764;2023-09-18T01:34:22;22.10;99.90
14182;DHT22;7171;50.936;6.764;2023-09-18T01:36:52;22.10;99.90
14182;DHT22;7171;50.936;6.764;2023-09-18T01:39:19;22.10;99.90
14182;DHT22;7171;50.936;6.764;2023-09-18T01:41:48;22.10;99.90
14182;DHT22;7171;50.936;6.764;2023-09-18T01:44:15;22.10;99.90
14182;DHT22;7171;50.936;6.764;2023-09-18T01:46:42;22.00;99.90
14182;DHT22;7171;50.936;6.764;2023-09-18T01:49:10;22.00;99.90
14182;DHT22;7171;50.936;6.764;2023-09-18T01:51:36;22.00;99.90
14182;DHT22;7171;50.936;6.764;2023-09-18T01:54:03;22.00;99.90
14182;DHT22;7171;50.936;6.764;2023-09-18T01:56:30;22.00;99.90
14182;DHT22;7171;50.936;6.764;2023-09-18T01:58:58;22.00;99.90
14182;DHT22;7171;50.936;6.764;2023-09-18T02:01:25;22.00;99.90
14182;DHT22;7171;50.936;6.764;2023-09-18T02:03:52;22.10;99.90
14182;DHT22;7171;50.936;6.764;2023-09-18T02:06:18;22.10;99.90
14182;DHT22;7171;50.936;6.764;2023-09-18T02:08:45;22.00;99.90
14182;DHT22;7171;50.936;6.764;2023-09-18T02:11:12;22.00;99.90
14182;DHT22;7171;50.936;6.764;2023-09-18T02:13:39;22.10;99.90
14182;DHT22;7171;50.936;6.764;2023-09-18T02:16:07;22.10;99.90
14182;DHT22;7171;50.936;6.764;2023-09-18T02:21:03;22.10;99.90
14182;DHT22;7171;50.936;6.764;2023-09-18T02:23:29;22.10;99.90
14182;DHT22;7171;50.936;6.764;2023-09-18T02:25:56;22.10;99.90
14182;DHT22;7171;50.936;6.764;2023-09-18T02:28:23;22.20;99.90
14182;DHT22;7171;50.936;6.764;2023-09-18T02:30:50;22.20;99.90
14182;DHT22;7171;50.936;6.764;2023-09-18T02:33:18;22.20;99.90
14182;DHT22;7171;50.936;6.764;2023-09-18T02:35:45;22.20;99.90
14182;DHT22;7171;50.936;6.764;2023-09-18T02:38:12;22.20;99.90
14182;DHT22;7171;50.936;6.764;2023-09-18T02:40:38;22.20;99.90
14182;DHT22;7171;50.936;6.764;2023-09-18T02:43:05;22.30;99.90
14182;DHT22;7171;50.936;6.764;2023-09-18T02:45:32;22.30;99.90
14182;DHT22;7171;50.936;6.764;2023-09-18T02:47:59;22.30;99.90
14182;DHT22;7171;50.936;6.764;2023-09-18T02:50:27;22.30;99.90
14182;DHT22;7171;50.936;6.764;2023-09-18T02:52:53;22.30;99.90
14182;DHT22;7171;50.936;6.764;2023-09-18T02:55:20;22.40;99.90
14182;DHT22;7171;50.936;6.764;2023-09-18T02:57:47;22.40;99.90
14182;DHT22;7171;50.936;6.764;2023-09-18T03:00:14;22.40;99.90
14182;DHT22;7171;50.936;6.764;2023-09-18T03:02:41;22.40;99.90
14182;DHT22;7171;50.936;6.764;2023-09-18T03:05:08;22.40;99.90
14182;DHT22;7171;50.936;6.764;2023-09-18T03:07:37;22.40;99.90
14182;DHT22;7171;50.936;6.764;2023-09-18T03:10:04;22.40;99.90
14182;DHT22;7171;50.936;6.764;2023-09-18T03:12:31;22.40;99.90
14182;DHT22;7171;50.936;6.764;2023-09-18T03:14:59;22.30;99.90
14182;DHT22;7171;50.936;6.764;2023-09-18T03:17:25;22.30;99.90
14182;DHT22;7171;50.936;6.764;2023-09-18T03:19:53;22.30;99.90
14182;DHT22;7171;50.936;6.764;2023-09-18T03:22:19;22.20;99.90
14182;DHT22;7171;50.936;6.764;2023-09-18T03:24:47;22.20;99.90
14182;DHT22;7171;50.936;6.764;2023-09-18T03:27:15;22.10;99.90
14182;DHT22;7171;50.936;6.764;2023-09-18T03:29:42;22.10;99.90
14182;DHT22;7171;50.936;6.764;2023-09-18T03:32:08;22.10;99.90
14182;DHT22;7171;50.936;6.764;2023-09-18T03:34:38;22.10;99.90
14182;DHT22;7171;50.936;6.764;2023-09-18T03:37:04;22.10;99.90
14182;DHT22;7171;50.936;6.764;2023-09-18T03:39:31;22.10;99.90
14182;DHT22;7171;50.936;6.764;2023-09-18T03:42:00;22.10;99.90
14182;DHT22;7171;50.936;6.764;2023-09-18T03:44:26;22.00;99.90
14182;DHT22;7171;50.936;6.764;2023-09-18T03:46:53;21.30;99.90
14182;DHT22;7171;50.936;6.764;2023-09-18T03:49:20;22.00;99.90
14182;DHT22;7171;50.936;6.764;2023-09-18T03:51:47;22.00;99.90
14182;DHT22;7171;50.936;6.764;2023-09-18T03:54:14;22.00;99.90
14182;DHT22;7171;50.936;6.764;2023-09-18T03:56:40;22.00;99.90
14182;DHT22;7171;50.936;6.764;2023-09-18T03:59:09;22.00;99.90
14182;DHT22;7171;50.936;6.764;2023-09-18T04:01:36;21.90;99.90
14182;DHT22;7171;50.936;6.764;2023-09-18T04:04:03;21.90;99.90
14182;DHT22;7171;50.936;6.764;2023-09-18T04:06:36;21.90;99.90
14182;DHT22;7171;50.936;6.764;2023-09-18T04:09:03;22.00;99.90
14182;DHT22;7171;50.936;6.764;2023-09-18T04:11:30;21.80;99.90
14182;DHT22;7171;50.936;6.764;2023-09-18T04:13:58;22.00;99.90
14182;DHT22;7171;50.936;6.764;2023-09-18T04:16:26;22.00;99.90
14182;DHT22;7171;50.936;6.764;2023-09-18T04:18:53;21.90;99.90
14182;DHT22;7171;50.936;6.764;2023-09-18T04:21:20;22.00;99.90
14182;DHT22;7171;50.936;6.764;2023-09-18T04:23:47;22.00;99.90
14182;DHT22;7171;50.936;6.764;2023-09-18T04:26:21;22.00;99.90
14182;DHT22;7171;50.936;6.764;2023-09-18T04:28:48;22.00;99.90
14182;DHT22;7171;50.936;6.764;2023-09-18T04:31:14;22.10;99.90
14182;DHT22;7171;50.936;6.764;2023-09-18T04:33:43;22.10;99.90
14182;DHT22;7171;50.936;6.764;2023-09-18T04:36:10;22.20;99.90
14182;DHT22;7171;50.936;6.764;2023-09-18T04:38:37;22.30;99.90
14182;DHT22;7171;50.936;6.764;2023-09-18T04:41:04;22.40;99.90
14182;DHT22;7171;50.936;6.764;2023-09-18T04:43:33;22.50;99.90
14182;DHT22;7171;50.936;6.764;2023-09-18T04:46:00;22.50;99.90
14182;DHT22;7171;50.936;6.764;2023-09-18T04:48:28;22.60;99.90
14182;DHT22;7171;50.936;6.764;2023-09-18T04:50:56;22.60;99.90
14182;DHT22;7171;50.936;6.764;2023-09-18T04:53:23;22.60;99.90
14182;DHT22;7171;50.936;6.764;2023-09-18T04:55:50;22.60;99.90
14182;DHT22;7171;50.936;6.764;2023-09-18T04:58:17;22.60;99.90
14182;DHT22;7171;50.936;6.764;2023-09-18T05:00:44;22.60;99.90
14182;DHT22;7171;50.936;6.764;2023-09-18T05:03:12;22.60;99.90
14182;DHT22;7171;50.936;6.764;2023-09-18T05:05:39;22.70;99.90
14182;DHT22;7171;50.936;6.764;2023-09-18T05:08:07;22.70;99.90
14182;DHT22;7171;50.936;6.764;2023-09-18T05:10:34;22.70;99.90
14182;DHT22;7171;50.936;6.764;2023-09-18T05:13:01;22.70;99.90
14182;DHT22;7171;50.936;6.764;2023-09-18T05:15:28;22.80;99.90
14182;DHT22;7171;50.936;6.764;2023-09-18T05:17:56;22.80;99.90
14182;DHT22;7171;50.936;6.764;2023-09-18T05:20:24;22.80;99.90
14182;DHT22;7171;50.936;6.764;2023-09-18T05:22:52;22.80;99.90
14182;DHT22;7171;50.936;6.764;2023-09-18T05:25:21;22.80;99.90
14182;DHT22;7171;50.936;6.764;2023-09-18T05:27:49;22.80;99.90
14182;DHT22;7171;50.936;6.764;2023-09-18T05:30:24;22.80;99.90
14182;DHT22;7171;50.936;6.764;2023-09-18T05:32:53;22.80;99.90
14182;DHT22;7171;50.936;6.764;2023-09-18T05:35:20;22.80;99.90
14182;DHT22;7171;50.936;6.764;2023-09-18T05:37:49;22.80;99.90
14182;DHT22;7171;50.936;6.764;2023-09-18T05:40:16;22.70;99.90
14182;DHT22;7171;50.936;6.764;2023-09-18T05:42:45;22.70;99.90
14182;DHT22;7171;50.936;6.764;2023-09-18T05:45:12;22.70;99.90
14182;DHT22;7171;50.936;6.764;2023-09-18T05:47:39;22.70;99.90
14182;DHT22;7171;50.936;6.764;2023-09-18T05:50:07;22.70;99.90
14182;DHT22;7171;50.936;6.764;2023-09-18T05:52:35;22.70;99.90
14182;DHT22;7171;50.936;6.764;2023-09-18T05:55:02;22.70;99.90
14182;DHT22;7171;50.936;6.764;2023-09-18T05:57:29;22.70;99.90
14182;DHT22;7171;50.936;6.764;2023-09-18T05:59:57;22.70;99.90
14182;DHT22;7171;50.936;6.764;2023-09-18T06:02:24;22.70;99.90
14182;DHT22;7171;50.936;6.764;2023-09-18T06:04:54;22.70;99.90
14182;DHT22;7171;50.936;6.764;2023-09-18T06:07:23;22.70;99.90
14182;DHT22;7171;50.936;6.764;2023-09-18T06:09:50;22.80;99.90
14182;DHT22;7171;50.936;6.764;2023-09-18T06:12:17;22.80;99.90
14182;DHT22;7171;50.936;6.764;2023-09-18T06:14:43;22.80;99.90
14182;DHT22;7171;50.936;6.764;2023-09-18T06:17:13;22.80;99.90
14182;DHT22;7171;50.936;6.764;2023-09-18T06:19:41;22.80;99.90
14182;DHT22;7171;50.936;6.764;2023-09-18T06:22:08;22.80;99.90
14182;DHT22;7171;50.936;6.764;2023-09-18T06:24:34;22.80;99.90
14182;DHT22;7171;50.936;6.764;2023-09-18T06:27:01;22.80;99.90
14182;DHT22;7171;50.936;6.764;2023-09-18T06:29:29;22.90;99.90
14182;DHT22;7171;50.936;6.764;2023-09-18T06:31:56;22.90;99.90
14182;DHT22;7171;50.936;6.764;2023-09-18T06:34:24;22.90;99.90
14182;DHT22;7171;50.936;6.764;2023-09-18T06:36:51;23.00;99.90
14182;DHT22;7171;50.936;6.764;2023-09-18T06:39:18;22.90;99.90
14182;DHT22;7171;50.936;6.764;2023-09-18T06:41:45;23.00;99.90
14182;DHT22;7171;50.936;6.764;2023-09-18T06:44:12;23.00;99.90
14182;DHT22;7171;50.936;6.764;2023-09-18T06:46:39;23.00;99.90
14182;DHT22;7171;50.936;6.764;2023-09-18T06:49:06;23.10;99.90
14182;DHT22;7171;50.936;6.764;2023-09-18T06:51:34;23.10;99.90
14182;DHT22;7171;50.936;6.764;2023-09-18T06:54:00;23.10;99.90
14182;DHT22;7171;50.936;6.764;2023-09-18T06:56:28;23.10;99.90
14182;DHT22;7171;50.936;6.764;2023-09-18T06:58:55;23.20;99.90
14182;DHT22;7171;50.936;6.764;2023-09-18T07:01:22;23.20;99.90
14182;DHT22;7171;50.936;6.764;2023-09-18T07:03:50;23.20;99.90
14182;DHT22;7171;50.936;6.764;2023-09-18T07:06:17;23.10;99.90
14182;DHT22;7171;50.936;6.764;2023-09-18T07:08:47;23.10;99.90
14182;DHT22;7171;50.936;6.764;2023-09-18T07:11:15;23.20;99.90
14182;DHT22;7171;50.936;6.764;2023-09-18T07:13:42;23.20;99.90
14182;DHT22;7171;50.936;6.764;2023-09-18T07:16:09;23.20;99.90
14182;DHT22;7171;50.936;6.764;2023-09-18T07:18:37;23.20;99.90
14182;DHT22;7171;50.936;6.764;2023-09-18T07:21:04;23.30;99.90
14182;DHT22;7171;50.936;6.764;2023-09-18T07:23:31;23.20;99.90
14182;DHT22;7171;50.936;6.764;2023-09-18T07:25:59;23.20;99.90
14182;DHT22;7171;50.936;6.764;2023-09-18T07:28:26;23.20;99.90
14182;DHT22;7171;50.936;6.764;2023-09-18T07:30:53;23.20;99.90
14182;DHT22;7171;50.936;6.764;2023-09-18T07:33:19;23.20;99.90
14182;DHT22;7171;50.936;6.764;2023-09-18T07:35:46;23.20;99.90
14182;DHT22;7171;50.936;6.764;2023-09-18T07:38:14;23.10;99.90
14182;DHT22;7171;50.936;6.764;2023-09-18T07:40:41;23.10;99.90
14182;DHT22;7171;50.936;6.764;2023-09-18T07:43:09;23.10;99.90
14182;DHT22;7171;50.936;6.764;2023-09-18T07:45:38;23.10;99.90
14182;DHT22;7171;50.936;6.764;2023-09-18T07:48:06;23.10;99.90
14182;DHT22;7171;50.936;6.764;2023-09-18T07:50:33;23.10;99.90
14182;DHT22;7171;50.936;6.764;2023-09-18T07:53:00;23.10;99.90
14182;DHT22;7171;50.936;6.764;2023-09-18T07:55:26;23.10;99.90
14182;DHT22;7171;50.936;6.764;2023-09-18T07:57:53;23.10;99.90
14182;DHT22;7171;50.936;6.764;2023-09-18T08:00:21;23.10;99.90
14182;DHT22;7171;50.936;6.764;2023-09-18T08:02:48;23.10;99.90
14182;DHT22;7171;50.936;6.764;2023-09-18T08:05:15;23.20;99.90
14182;DHT22;7171;50.936;6.764;2023-09-18T08:07:42;23.30;99.90
14182;DHT22;7171;50.936;6.764;2023-09-18T08:10:10;23.20;99.90
14182;DHT22;7171;50.936;6.764;2023-09-18T08:12:38;23.20;99.90
14182;DHT22;7171;50.936;6.764;2023-09-18T08:15:06;23.20;99.90
14182;DHT22;7171;50.936;6.764;2023-09-18T08:17:35;23.20;99.90
14182;DHT22;7171;50.936;6.764;2023-09-18T08:20:02;23.20;99.90
14182;DHT22;7171;50.936;6.764;2023-09-18T08:22:35;23.20;99.90
14182;DHT22;7171;50.936;6.764;2023-09-18T08:25:03;23.30;99.90
14182;DHT22;7171;50.936;6.764;2023-09-18T08:27:31;23.30;99.90
14182;DHT22;7171;50.936;6.764;2023-09-18T08:29:58;23.30;99.90
14182;DHT22;7171;50.936;6.764;2023-09-18T08:32:25;23.40;99.90
14182;DHT22;7171;50.936;6.764;2023-09-18T08:34:54;23.40;99.90
14182;DHT22;7171;50.936;6.764;2023-09-18T08:37:20;23.40;99.90
14182;DHT22;7171;50.936;6.764;2023-09-18T08:39:47;23.50;99.90
14182;DHT22;7171;50.936;6.764;2023-09-18T08:42:15;23.40;99.90
14182;DHT22;7171;50.936;6.764;2023-09-18T08:44:43;23.40;99.90
14182;DHT22;7171;50.936;6.764;2023-09-18T08:47:13;23.50;99.90
14182;DHT22;7171;50.936;6.764;2023-09-18T08:49:41;23.40;99.90
14182;DHT22;7171;50.936;6.764;2023-09-18T08:52:10;23.50;99.90
14182;DHT22;7171;50.936;6.764;2023-09-18T08:54:37;23.40;99.90
14182;DHT22;7171;50.936;6.764;2023-09-18T08:57:04;23.50;99.90
14182;DHT22;7171;50.936;6.764;2023-09-18T08:59:35;23.50;99.90
14182;DHT22;7171;50.936;6.764;2023-09-18T09:02:02;23.50;99.90
14182;DHT22;7171;50.936;6.764;2023-09-18T09:04:29;23.50;99.90
14182;DHT22;7171;50.936;6.764;2023-09-18T09:06:56;23.60;99.90
14182;DHT22;7171;50.936;6.764;2023-09-18T09:09:26;23.60;99.90
14182;DHT22;7171;50.936;6.764;2023-09-18T09:11:53;23.60;99.90
14182;DHT22;7171;50.936;6.764;2023-09-18T09:14:20;23.60;99.90
14182;DHT22;7171;50.936;6.764;2023-09-18T09:16:54;23.60;99.90
14182;DHT22;7171;50.936;6.764;2023-09-18T09:19:28;23.60;99.90
14182;DHT22;7171;50.936;6.764;2023-09-18T09:21:55;23.60;99.90
14182;DHT22;7171;50.936;6.764;2023-09-18T09:24:38;23.60;99.90
14182;DHT22;7171;50.936;6.764;2023-09-18T09:27:05;23.60;99.90
14182;DHT22;7171;50.936;6.764;2023-09-18T09:29:32;23.60;99.90
14182;DHT22;7171;50.936;6.764;2023-09-18T09:32:12;23.60;99.90
14182;DHT22;7171;50.936;6.764;2023-09-18T09:34:41;23.60;99.90
14182;DHT22;7171;50.936;6.764;2023-09-18T09:37:08;23.70;99.90
14182;DHT22;7171;50.936;6.764;2023-09-18T09:39:47;23.70;99.90
14182;DHT22;7171;50.936;6.764;2023-09-18T09:42:16;23.70;99.90
14182;DHT22;7171;50.936;6.764;2023-09-18T09:45:01;23.80;99.90
14182;DHT22;7171;50.936;6.764;2023-09-18T09:47:33;23.70;99.90
14182;DHT22;7171;50.936;6.764;2023-09-18T09:50:06;23.70;99.90
14182;DHT22;7171;50.936;6.764;2023-09-18T09:52:33;23.70;99.90
14182;DHT22;7171;50.936;6.764;2023-09-18T09:55:01;23.70;99.90
14182;DHT22;7171;50.936;6.764;2023-09-18T09:57:29;23.70;99.90
14182;DHT22;7171;50.936;6.764;2023-09-18T10:00:03;23.70;99.90
14182;DHT22;7171;50.936;6.764;2023-09-18T10:02:39;23.80;99.90
14182;DHT22;7171;50.936;6.764;2023-09-18T10:05:06;23.70;99.90
14182;DHT22;7171;50.936;6.764;2023-09-18T10:07:33;23.80;99.90
14182;DHT22;7171;50.936;6.764;2023-09-18T10:10:01;23.80;99.90
14182;DHT22;7171;50.936;6.764;2023-09-18T10:12:29;23.80;99.90
14182;DHT22;7171;50.936;6.764;2023-09-18T10:15:00;23.80;99.90
14182;DHT22;7171;50.936;6.764;2023-09-18T10:17:27;23.90;99.90
14182;DHT22;7171;50.936;6.764;2023-09-18T10:20:02;23.90;99.90
14182;DHT22;7171;50.936;6.764;2023-09-18T10:22:38;24.10;99.90
14182;DHT22;7171;50.936;6.764;2023-09-18T10:25:13;24.20;99.90
14182;DHT22;7171;50.936;6.764;2023-09-18T10:27:45;24.30;99.90
14182;DHT22;7171;50.936;6.764;2023-09-18T10:30:12;24.40;99.90
14182;DHT22;7171;50.936;6.764;2023-09-18T10:32:40;24.60;99.90
14182;DHT22;7171;50.936;6.764;2023-09-18T10:35:07;24.50;99.90
14182;DHT22;7171;50.936;6.764;2023-09-18T10:37:36;24.80;99.90
14182;DHT22;7171;50.936;6.764;2023-09-18T10:40:05;24.80;99.90
14182;DHT22;7171;50.936;6.764;2023-09-18T10:42:35;25.00;99.90
14182;DHT22;7171;50.936;6.764;2023-09-18T10:45:02;25.10;99.90
14182;DHT22;7171;50.936;6.764;2023-09-18T10:47:31;25.20;99.90
14182;DHT22;7171;50.936;6.764;2023-09-18T10:50:00;25.30;99.90
14182;DHT22;7171;50.936;6.764;2023-09-18T10:52:27;25.20;99.90
14182;DHT22;7171;50.936;6.764;2023-09-18T10:54:54;25.30;99.90
14182;DHT22;7171;50.936;6.764;2023-09-18T10:57:20;25.40;99.90
14182;DHT22;7171;50.936;6.764;2023-09-18T10:59:49;25.40;99.90
14182;DHT22;7171;50.936;6.764;2023-09-18T11:02:16;25.50;99.90
14182;DHT22;7171;50.936;6.764;2023-09-18T11:04:45;25.60;99.90
14182;DHT22;7171;50.936;6.764;2023-09-18T11:07:19;25.60;99.90
14182;DHT22;7171;50.936;6.764;2023-09-18T11:09:47;25.60;99.90
14182;DHT22;7171;50.936;6.764;2023-09-18T11:12:15;25.70;99.90
14182;DHT22;7171;50.936;6.764;2023-09-18T11:14:49;25.80;99.90
14182;DHT22;7171;50.936;6.764;2023-09-18T11:17:35;25.80;99.90
14182;DHT22;7171;50.936;6.764;2023-09-18T11:20:09;26.00;99.90
14182;DHT22;7171;50.936;6.764;2023-09-18T11:22:38;26.00;99.90
14182;DHT22;7171;50.936;6.764;2023-09-18T11:25:34;26.00;99.90
14182;DHT22;7171;50.936;6.764;2023-09-18T11:28:03;26.00;99.90
14182;DHT22;7171;50.936;6.764;2023-09-18T11:30:33;26.00;99.90
14182;DHT22;7171;50.936;6.764;2023-09-18T11:33:02;26.10;99.90
14182;DHT22;7171;50.936;6.764;2023-09-18T11:35:29;26.10;99.90
14182;DHT22;7171;50.936;6.764;2023-09-18T11:38:07;26.10;99.90
14182;DHT22;7171;50.936;6.764;2023-09-18T11:40:35;26.30;99.90
14182;DHT22;7171;50.936;6.764;2023-09-18T11:43:24;26.80;99.90
14182;DHT22;7171;50.936;6.764;2023-09-18T11:45:54;26.80;99.90
14182;DHT22;7171;50.936;6.764;2023-09-18T11:48:22;26.90;99.90
14182;DHT22;7171;50.936;6.764;2023-09-18T11:50:52;27.20;99.90
14182;DHT22;7171;50.936;6.764;2023-09-18T11:53:20;27.20;99.90
14182;DHT22;7171;50.936;6.764;2023-09-18T11:55:47;27.40;99.90
14182;DHT22;7171;50.936;6.764;2023-09-18T11:58:14;27.60;99.90
14182;DHT22;7171;50.936;6.764;2023-09-18T12:00:41;27.60;99.90
14182;DHT22;7171;50.936;6.764;2023-09-18T12:03:20;27.70;99.90
14182;DHT22;7171;50.936;6.764;2023-09-18T12:05:55;27.80;99.90
14182;DHT22;7171;50.936;6.764;2023-09-18T12:08:23;27.90;99.90
14182;DHT22;7171;50.936;6.764;2023-09-18T12:10:52;28.00;99.90
14182;DHT22;7171;50.936;6.764;2023-09-18T12:13:19;28.00;99.90
14182;DHT22;7171;50.936;6.764;2023-09-18T12:15:47;27.80;99.90
14182;DHT22;7171;50.936;6.764;2023-09-18T12:18:15;27.80;99.90
14182;DHT22;7171;50.936;6.764;2023-09-18T12:20:48;27.90;99.90
14182;DHT22;7171;50.936;6.764;2023-09-18T12:23:15;28.10;99.90
14182;DHT22;7171;50.936;6.764;2023-09-18T12:25:44;28.20;99.90
14182;DHT22;7171;50.936;6.764;2023-09-18T12:28:13;28.20;99.90
14182;DHT22;7171;50.936;6.764;2023-09-18T12:30:41;28.30;99.90
14182;DHT22;7171;50.936;6.764;2023-09-18T12:33:08;28.40;99.90
14182;DHT22;7171;50.936;6.764;2023-09-18T12:35:35;28.50;99.90
14182;DHT22;7171;50.936;6.764;2023-09-18T12:38:13;28.50;99.90
14182;DHT22;7171;50.936;6.764;2023-09-18T12:40:41;28.50;99.90
14182;DHT22;7171;50.936;6.764;2023-09-18T12:43:10;28.60;99.90
14182;DHT22;7171;50.936;6.764;2023-09-18T12:45:38;28.40;99.90
14182;DHT22;7171;50.936;6.764;2023-09-18T12:48:06;28.40;99.90
14182;DHT22;7171;50.936;6.764;2023-09-18T12:50:33;28.30;99.90
14182;DHT22;7171;50.936;6.764;2023-09-18T12:53:09;28.20;99.90
14182;DHT22;7171;50.936;6.764;2023-09-18T12:55:36;28.10;99.90
14182;DHT22;7171;50.936;6.764;2023-09-18T12:58:03;28.20;99.90
14182;DHT22;7171;50.936;6.764;2023-09-18T13:00:33;28.10;99.90
14182;DHT22;7171;50.936;6.764;2023-09-18T13:03:00;28.00;99.90
14182;DHT22;7171;50.936;6.764;2023-09-18T13:05:30;28.00;99.90
14182;DHT22;7171;50.936;6.764;2023-09-18T13:08:01;27.90;99.90
14182;DHT22;7171;50.936;6.764;2023-09-18T13:10:41;27.90;99.90
14182;DHT22;7171;50.936;6.764;2023-09-18T13:13:07;27.80;99.90
14182;DHT22;7171;50.936;6.764;2023-09-18T13:15:42;27.80;99.90
14182;DHT22;7171;50.936;6.764;2023-09-18T13:18:11;27.80;99.90
14182;DHT22;7171;50.936;6.764;2023-09-18T13:20:38;27.70;99.90
14182;DHT22;7171;50.936;6.764;2023-09-18T13:23:06;27.70;99.90
14182;DHT22;7171;50.936;6.764;2023-09-18T13:25:35;27.70;99.90
14182;DHT22;7171;50.936;6.764;2023-09-18T13:28:05;27.50;99.90
14182;DHT22;7171;50.936;6.764;2023-09-18T13:30:32;27.50;99.90
14182;DHT22;7171;50.936;6.764;2023-09-18T13:33:05;27.50;99.90
14182;DHT22;7171;50.936;6.764;2023-09-18T13:35:32;27.50;99.90
14182;DHT22;7171;50.936;6.764;2023-09-18T13:37:59;27.40;99.90
14182;DHT22;7171;50.936;6.764;2023-09-18T13:40:26;27.60;99.90
14182;DHT22;7171;50.936;6.764;2023-09-18T13:42:55;27.60;99.90
14182;DHT22;7171;50.936;6.764;2023-09-18T13:45:21;27.50;99.90
14182;DHT22;7171;50.936;6.764;2023-09-18T13:47:48;27.60;99.90
14182;DHT22;7171;50.936;6.764;2023-09-18T13:50:15;27.60;99.90
14182;DHT22;7171;50.936;6.764;2023-09-18T13:52:42;27.60;99.90
14182;DHT22;7171;50.936;6.764;2023-09-18T13:55:09;27.50;99.90
14182;DHT22;7171;50.936;6.764;2023-09-18T13:57:36;27.50;99.90
14182;DHT22;7171;50.936;6.764;2023-09-18T14:00:05;27.50;99.90
14182;DHT22;7171;50.936;6.764;2023-09-18T14:02:35;27.50;99.90
14182;DHT22;7171;50.936;6.764;2023-09-18T14:05:02;27.50;99.90
14182;DHT22;7171;50.936;6.764;2023-09-18T14:07:29;27.50;99.90
14182;DHT22;7171;50.936;6.764;2023-09-18T14:09:56;27.40;99.90
14182;DHT22;7171;50.936;6.764;2023-09-18T14:12:24;27.50;99.90
14182;DHT22;7171;50.936;6.764;2023-09-18T14:14:51;27.50;99.90
14182;DHT22;7171;50.936;6.764;2023-09-18T14:17:19;27.50;99.90
14182;DHT22;7171;50.936;6.764;2023-09-18T14:19:47;27.50;99.90
14182;DHT22;7171;50.936;6.764;2023-09-18T14:22:14;27.50;99.90
14182;DHT22;7171;50.936;6.764;2023-09-18T14:24:41;27.50;99.90
14182;DHT22;7171;50.936;6.764;2023-09-18T14:27:08;27.50;99.90
14182;DHT22;7171;50.936;6.764;2023-09-18T14:29:34;27.40;99.90
14182;DHT22;7171;50.936;6.764;2023-09-18T14:32:01;27.40;99.90
14182;DHT22;7171;50.936;6.764;2023-09-18T14:34:31;27.50;99.90
14182;DHT22;7171;50.936;6.764;2023-09-18T14:37:00;27.40;99.90
14182;DHT22;7171;50.936;6.764;2023-09-18T14:39:29;27.90;99.90
14182;DHT22;7171;50.936;6.764;2023-09-18T14:41:56;28.00;99.90
14182;DHT22;7171;50.936;6.764;2023-09-18T14:44:22;28.00;99.90
14182;DHT22;7171;50.936;6.764;2023-09-18T14:46:50;28.10;99.90
14182;DHT22;7171;50.936;6.764;2023-09-18T14:49:18;28.00;99.90
14182;DHT22;7171;50.936;6.764;2023-09-18T14:51:46;27.90;99.90
14182;DHT22;7171;50.936;6.764;2023-09-18T14:54:14;27.90;99.90
14182;DHT22;7171;50.936;6.764;2023-09-18T14:56:41;27.90;99.90
14182;DHT22;7171;50.936;6.764;2023-09-18T14:59:10;27.80;99.90
14182;DHT22;7171;50.936;6.764;2023-09-18T15:01:37;27.70;99.90
14182;DHT22;7171;50.936;6.764;2023-09-18T15:04:04;27.70;99.90
14182;DHT22;7171;50.936;6.764;2023-09-18T15:06:31;27.70;99.90
14182;DHT22;7171;50.936;6.764;2023-09-18T15:08:59;27.60;99.90
14182;DHT22;7171;50.936;6.764;2023-09-18T15:11:28;27.60;99.90
14182;DHT22;7171;50.936;6.764;2023-09-18T15:13:55;27.60;99.90
14182;DHT22;7171;50.936;6.764;2023-09-18T15:16:22;27.60;99.90
14182;DHT22;7171;50.936;6.764;2023-09-18T15:18:49;27.70;99.90
14182;DHT22;7171;50.936;6.764;2023-09-18T15:21:15;27.70;99.90
14182;DHT22;7171;50.936;6.764;2023-09-18T15:23:42;27.90;99.90
14182;DHT22;7171;50.936;6.764;2023-09-18T15:26:10;28.00;99.90
14182;DHT22;7171;50.936;6.764;2023-09-18T15:28:37;28.10;99.90
14182;DHT22;7171;50.936;6.764;2023-09-18T15:31:04;27.90;99.90
14182;DHT22;7171;50.936;6.764;2023-09-18T15:33:30;27.70;99.90
14182;DHT22;7171;50.936;6.764;2023-09-18T15:35:57;27.60;99.90
14182;DHT22;7171;50.936;6.764;2023-09-18T15:38:24;27.50;99.90
14182;DHT22;7171;50.936;6.764;2023-09-18T15:40:52;27.30;99.90
14182;DHT22;7171;50.936;6.764;2023-09-18T15:43:21;27.20;99.90
14182;DHT22;7171;50.936;6.764;2023-09-18T15:45:47;27.10;99.90
14182;DHT22;7171;50.936;6.764;2023-09-18T15:48:14;27.30;99.90
14182;DHT22;7171;50.936;6.764;2023-09-18T15:50:43;27.60;99.90
14182;DHT22;7171;50.936;6.764;2023-09-18T15:53:09;27.70;99.90